sensor_id;sensor_type;location;lat;lon;timestamp;temperature;humidity
1936;DHT22;969;49.892;10.896;2023-02-22T00:00:29;19.10;47.90
1936;DHT22;969;49.892;10.896;2023-02-22T00:03:10;19.10;47.90
1936;DHT22;969;49.892;10.896;2023-02-22T00:05:37;19.10;47.90
1936;DHT22;969;49.892;10.896;2023-02-22T00:08:05;19.10;47.90
1936;DHT22;969;49.892;10.896;2023-02-22T00:10:34;19.10;47.80
1936;DHT22;969;49.892;10.896;2023-02-22T00:13:03;19.10;47.80
1936;DHT22;969;49.892;10.896;2023-02-22T00:15:30;19.10;47.80
1936;DHT22;969;49.892;10.896;2023-02-22T00:17:55;19.10;47.80
1936;DHT22;969;49.892;10.896;2023-02-22T00:20:21;19.10;47.80
1936;DHT22;969;49.892;10.896;2023-02-22T00:22:48;19.10;47.70
1936;DHT22;969;49.892;10.896;2023-02-22T00:25:17;19.10;47.70
1936;DHT22;969;49.892;10.896;2023-02-22T00:27:44;19.10;47.70
1936;DHT22;969;49.892;10.896;2023-02-22T00:30:18;19.00;47.60
1936;DHT22;969;49.892;10.896;2023-02-22T00:32:45;19.00;47.60
1936;DHT22;969;49.892;10.896;2023-02-22T00:35:15;19.00;47.60
1936;DHT22;969;49.892;10.896;2023-02-22T00:37:41;19.00;47.50
1936;DHT22;969;49.892;10.896;2023-02-22T00:40:13;19.00;47.60
1936;DHT22;969;49.892;10.896;2023-02-22T00:42:39;19.00;47.50
1936;DHT22;969;49.892;10.896;2023-02-22T00:45:05;19.00;47.50
1936;DHT22;969;49.892;10.896;2023-02-22T00:47:31;19.00;47.50
1936;DHT22;969;49.892;10.896;2023-02-22T00:49:57;19.00;47.50
1936;DHT22;969;49.892;10.896;2023-02-22T00:52:23;19.00;47.50
1936;DHT22;969;49.892;10.896;2023-02-22T00:54:48;19.00;47.50
1936;DHT22;969;49.892;10.896;2023-02-22T00:57:14;19.00;47.50
1936;DHT22;969;49.892;10.896;2023-02-22T00:59:39;19.00;47.50
1936;DHT22;969;49.892;10.896;2023-02-22T01:02:05;19.00;47.40
1936;DHT22;969;49.892;10.896;2023-02-22T01:04:31;18.90;47.40
1936;DHT22;969;49.892;10.896;2023-02-22T01:06:56;18.90;47.30
1936;DHT22;969;49.892;10.896;2023-02-22T01:09:24;18.90;47.40
1936;DHT22;969;49.892;10.896;2023-02-22T01:11:54;18.90;47.30
1936;DHT22;969;49.892;10.896;2023-02-22T01:14:21;18.90;47.30
1936;DHT22;969;49.892;10.896;2023-02-22T01:16:54;18.90;47.30
1936;DHT22;969;49.892;10.896;2023-02-22T01:19:20;18.90;47.30
1936;DHT22;969;49.892;10.896;2023-02-22T01:21:46;18.90;47.30
1936;DHT22;969;49.892;10.896;2023-02-22T01:24:13;18.90;47.30
1936;DHT22;969;49.892;10.896;2023-02-22T01:26:41;18.90;47.30
1936;DHT22;969;49.892;10.896;2023-02-22T01:29:11;18.90;47.20
1936;DHT22;969;49.892;10.896;2023-02-22T01:31:42;18.90;47.20
1936;DHT22;969;49.892;10.896;2023-02-22T01:34:09;18.90;47.20
1936;DHT22;969;49.892;10.896;2023-02-22T01:36:35;18.90;47.20
1936;DHT22;969;49.892;10.896;2023-02-22T01:39:01;18.80;47.10
1936;DHT22;969;49.892;10.896;2023-02-22T01:41:27;18.80;47.10
1936;DHT22;969;49.892;10.896;2023-02-22T01:43:52;18.80;47.70
1936;DHT22;969;49.892;10.896;2023-02-22T01:46:26;18.80;47.10
1936;DHT22;969;49.892;10.896;2023-02-22T01:49:00;18.80;47.10
1936;DHT22;969;49.892;10.896;2023-02-22T01:51:30;18.80;47.10
1936;DHT22;969;49.892;10.896;2023-02-22T01:54:13;18.80;47.10
1936;DHT22;969;49.892;10.896;2023-02-22T01:56:45;18.80;47.00
1936;DHT22;969;49.892;10.896;2023-02-22T01:59:12;18.80;47.10
1936;DHT22;969;49.892;10.896;2023-02-22T02:01:39;18.80;47.00
1936;DHT22;969;49.892;10.896;2023-02-22T02:04:16;18.80;47.00
1936;DHT22;969;49.892;10.896;2023-02-22T02:06:44;18.80;47.00
1936;DHT22;969;49.892;10.896;2023-02-22T02:11:41;18.80;47.00
1936;DHT22;969;49.892;10.896;2023-02-22T02:14:09;18.70;46.90
1936;DHT22;969;49.892;10.896;2023-02-22T02:16:41;18.70;46.90
1936;DHT22;969;49.892;10.896;2023-02-22T02:19:17;18.70;46.90
1936;DHT22;969;49.892;10.896;2023-02-22T02:22:27;18.70;46.90
1936;DHT22;969;49.892;10.896;2023-02-22T02:34:03;18.70;46.90
1936;DHT22;969;49.892;10.896;2023-02-22T02:36:49;18.60;46.80
1936;DHT22;969;49.892;10.896;2023-02-22T02:39:19;18.60;46.80
1936;DHT22;969;49.892;10.896;2023-02-22T02:41:49;18.60;46.80
1936;DHT22;969;49.892;10.896;2023-02-22T02:44:30;18.60;46.80
1936;DHT22;969;49.892;10.896;2023-02-22T02:47:27;18.60;46.80
1936;DHT22;969;49.892;10.896;2023-02-22T02:49:59;18.60;46.80
1936;DHT22;969;49.892;10.896;2023-02-22T02:52:27;18.60;46.80
1936;DHT22;969;49.892;10.896;2023-02-22T02:54:55;18.60;46.80
1936;DHT22;969;49.892;10.896;2023-02-22T02:57:21;18.60;46.70
1936;DHT22;969;49.892;10.896;2023-02-22T02:59:46;18.60;46.70
1936;DHT22;969;49.892;10.896;2023-02-22T03:08:08;18.60;47.20
1936;DHT22;969;49.892;10.896;2023-02-22T03:27:19;18.50;46.60
1936;DHT22;969;49.892;10.896;2023-02-22T03:29:50;18.50;46.60
1936;DHT22;969;49.892;10.896;2023-02-22T03:32:22;18.50;46.60
1936;DHT22;969;49.892;10.896;2023-02-22T03:34:53;18.50;46.60
1936;DHT22;969;49.892;10.896;2023-02-22T03:37:26;18.50;46.50
1936;DHT22;969;49.892;10.896;2023-02-22T03:39:54;18.50;46.50
1936;DHT22;969;49.892;10.896;2023-02-22T03:42:24;18.50;46.50
1936;DHT22;969;49.892;10.896;2023-02-22T03:44:53;18.50;46.50
1936;DHT22;969;49.892;10.896;2023-02-22T03:47:27;18.50;46.50
1936;DHT22;969;49.892;10.896;2023-02-22T03:50:04;18.50;46.50
1936;DHT22;969;49.892;10.896;2023-02-22T03:52:33;18.50;46.40
1936;DHT22;969;49.892;10.896;2023-02-22T03:55:00;18.50;46.40
1936;DHT22;969;49.892;10.896;2023-02-22T03:57:29;18.50;46.40
1936;DHT22;969;49.892;10.896;2023-02-22T03:59:55;18.50;46.40
1936;DHT22;969;49.892;10.896;2023-02-22T04:02:21;18.50;46.30
1936;DHT22;969;49.892;10.896;2023-02-22T04:04:48;18.50;46.40
1936;DHT22;969;49.892;10.896;2023-02-22T04:07:14;18.50;46.40
1936;DHT22;969;49.892;10.896;2023-02-22T04:09:40;18.40;46.30
1936;DHT22;969;49.892;10.896;2023-02-22T04:12:06;18.40;46.20
1936;DHT22;969;49.892;10.896;2023-02-22T04:14:31;18.50;46.30
1936;DHT22;969;49.892;10.896;2023-02-22T04:16:57;18.50;46.30
1936;DHT22;969;49.892;10.896;2023-02-22T04:19:23;18.40;46.20
1936;DHT22;969;49.892;10.896;2023-02-22T04:21:48;18.40;46.20
1936;DHT22;969;49.892;10.896;2023-02-22T04:24:14;18.40;46.20
1936;DHT22;969;49.892;10.896;2023-02-22T04:26:40;18.40;46.20
1936;DHT22;969;49.892;10.896;2023-02-22T04:29:05;18.40;46.20
1936;DHT22;969;49.892;10.896;2023-02-22T04:31:31;18.40;46.20
1936;DHT22;969;49.892;10.896;2023-02-22T04:33:58;18.40;46.20
1936;DHT22;969;49.892;10.896;2023-02-22T04:36:24;18.40;46.20
1936;DHT22;969;49.892;10.896;2023-02-22T04:38:51;18.30;46.10
1936;DHT22;969;49.892;10.896;2023-02-22T04:41:18;18.40;46.10
1936;DHT22;969;49.892;10.896;2023-02-22T04:43:44;18.40;46.10
1936;DHT22;969;49.892;10.896;2023-02-22T04:46:09;18.40;46.10
1936;DHT22;969;49.892;10.896;2023-02-22T04:48:35;18.40;46.10
1936;DHT22;969;49.892;10.896;2023-02-22T04:51:01;18.30;46.10
1936;DHT22;969;49.892;10.896;2023-02-22T04:53:27;18.30;46.10
1936;DHT22;969;49.892;10.896;2023-02-22T04:55:52;18.30;46.00
1936;DHT22;969;49.892;10.896;2023-02-22T04:58:18;18.30;46.00
1936;DHT22;969;49.892;10.896;2023-02-22T05:00:43;18.30;46.00
1936;DHT22;969;49.892;10.896;2023-02-22T05:03:09;18.30;46.10
1936;DHT22;969;49.892;10.896;2023-02-22T05:05:35;18.30;46.00
1936;DHT22;969;49.892;10.896;2023-02-22T05:08:00;18.30;46.00
1936;DHT22;969;49.892;10.896;2023-02-22T05:10:26;18.30;46.00
1936;DHT22;969;49.892;10.896;2023-02-22T05:12:52;18.30;46.00
1936;DHT22;969;49.892;10.896;2023-02-22T05:15:20;18.30;46.00
1936;DHT22;969;49.892;10.896;2023-02-22T05:17:46;18.30;46.00
1936;DHT22;969;49.892;10.896;2023-02-22T05:20:32;18.30;46.00
1936;DHT22;969;49.892;10.896;2023-02-22T05:22:59;18.30;46.00
1936;DHT22;969;49.892;10.896;2023-02-22T05:25:26;18.30;46.00
1936;DHT22;969;49.892;10.896;2023-02-22T05:27:56;18.30;46.00
1936;DHT22;969;49.892;10.896;2023-02-22T05:30:25;18.30;46.00
1936;DHT22;969;49.892;10.896;2023-02-22T05:32:52;18.20;45.90
1936;DHT22;969;49.892;10.896;2023-02-22T05:35:20;18.20;45.90
1936;DHT22;969;49.892;10.896;2023-02-22T05:37:46;18.30;45.90
1936;DHT22;969;49.892;10.896;2023-02-22T05:40:13;18.20;45.90
1936;DHT22;969;49.892;10.896;2023-02-22T05:42:41;18.20;45.90
1936;DHT22;969;49.892;10.896;2023-02-22T05:45:07;18.20;45.90
1936;DHT22;969;49.892;10.896;2023-02-22T05:47:33;18.20;45.90
1936;DHT22;969;49.892;10.896;2023-02-22T05:50:01;18.20;45.90
1936;DHT22;969;49.892;10.896;2023-02-22T05:52:27;18.20;45.90
1936;DHT22;969;49.892;10.896;2023-02-22T05:54:52;18.20;45.90
1936;DHT22;969;49.892;10.896;2023-02-22T05:57:18;18.20;45.80
1936;DHT22;969;49.892;10.896;2023-02-22T05:59:43;18.20;45.90
1936;DHT22;969;49.892;10.896;2023-02-22T06:02:09;18.20;45.90
1936;DHT22;969;49.892;10.896;2023-02-22T06:04:34;18.20;45.90
1936;DHT22;969;49.892;10.896;2023-02-22T06:07:00;18.20;45.90
1936;DHT22;969;49.892;10.896;2023-02-22T06:09:26;18.20;45.90
1936;DHT22;969;49.892;10.896;2023-02-22T06:11:51;18.20;45.90
1936;DHT22;969;49.892;10.896;2023-02-22T06:14:17;18.20;45.80
1936;DHT22;969;49.892;10.896;2023-02-22T06:16:43;18.20;45.80
1936;DHT22;969;49.892;10.896;2023-02-22T06:19:08;18.10;45.80
1936;DHT22;969;49.892;10.896;2023-02-22T06:21:34;18.10;45.80
1936;DHT22;969;49.892;10.896;2023-02-22T06:24:01;18.20;45.80
1936;DHT22;969;49.892;10.896;2023-02-22T06:26:28;18.10;45.70
1936;DHT22;969;49.892;10.896;2023-02-22T06:28:54;18.10;45.70
1936;DHT22;969;49.892;10.896;2023-02-22T06:31:19;18.10;45.70
1936;DHT22;969;49.892;10.896;2023-02-22T06:33:45;18.10;45.80
1936;DHT22;969;49.892;10.896;2023-02-22T06:36:11;18.10;45.80
1936;DHT22;969;49.892;10.896;2023-02-22T06:38:36;18.10;45.70
1936;DHT22;969;49.892;10.896;2023-02-22T06:41:02;18.10;45.80
1936;DHT22;969;49.892;10.896;2023-02-22T06:43:28;18.10;45.70
1936;DHT22;969;49.892;10.896;2023-02-22T06:45:53;18.10;45.80
1936;DHT22;969;49.892;10.896;2023-02-22T06:48:19;18.10;45.70
1936;DHT22;969;49.892;10.896;2023-02-22T06:50:44;18.10;45.70
1936;DHT22;969;49.892;10.896;2023-02-22T06:53:10;18.10;45.70
1936;DHT22;969;49.892;10.896;2023-02-22T06:55:36;18.10;45.70
1936;DHT22;969;49.892;10.896;2023-02-22T06:58:03;18.10;45.70
1936;DHT22;969;49.892;10.896;2023-02-22T07:00:30;18.10;45.70
1936;DHT22;969;49.892;10.896;2023-02-22T07:02:57;18.10;45.70
1936;DHT22;969;49.892;10.896;2023-02-22T07:05:24;18.10;45.70
1936;DHT22;969;49.892;10.896;2023-02-22T07:07:53;18.10;45.70
1936;DHT22;969;49.892;10.896;2023-02-22T07:10:26;18.10;45.70
1936;DHT22;969;49.892;10.896;2023-02-22T07:12:52;18.00;45.60
1936;DHT22;969;49.892;10.896;2023-02-22T07:15:19;18.10;45.70
1936;DHT22;969;49.892;10.896;2023-02-22T07:17:46;18.00;45.60
1936;DHT22;969;49.892;10.896;2023-02-22T07:20:12;18.10;45.70
1936;DHT22;969;49.892;10.896;2023-02-22T07:22:38;18.00;45.60
1936;DHT22;969;49.892;10.896;2023-02-22T07:25:08;18.10;45.70
1936;DHT22;969;49.892;10.896;2023-02-22T07:27:40;18.10;45.70
1936;DHT22;969;49.892;10.896;2023-02-22T07:30:14;18.00;45.60
1936;DHT22;969;49.892;10.896;2023-02-22T07:32:45;18.10;45.70
1936;DHT22;969;49.892;10.896;2023-02-22T07:35:15;18.00;45.60
1936;DHT22;969;49.892;10.896;2023-02-22T07:37:41;18.00;45.60
1936;DHT22;969;49.892;10.896;2023-02-22T07:40:07;18.00;45.60
1936;DHT22;969;49.892;10.896;2023-02-22T07:42:33;18.00;45.60
1936;DHT22;969;49.892;10.896;2023-02-22T07:45:16;18.00;45.60
1936;DHT22;969;49.892;10.896;2023-02-22T07:47:42;18.00;45.60
1936;DHT22;969;49.892;10.896;2023-02-22T07:50:08;18.00;45.60
1936;DHT22;969;49.892;10.896;2023-02-22T07:52:33;18.00;45.60
1936;DHT22;969;49.892;10.896;2023-02-22T07:54:59;18.00;45.60
1936;DHT22;969;49.892;10.896;2023-02-22T07:57:25;18.00;45.60
1936;DHT22;969;49.892;10.896;2023-02-22T07:59:50;18.00;45.60
1936;DHT22;969;49.892;10.896;2023-02-22T08:02:16;18.00;45.60
1936;DHT22;969;49.892;10.896;2023-02-22T08:04:42;18.00;45.60
1936;DHT22;969;49.892;10.896;2023-02-22T08:07:07;18.00;45.50
1936;DHT22;969;49.892;10.896;2023-02-22T08:09:33;18.00;45.60
1936;DHT22;969;49.892;10.896;2023-02-22T08:11:58;18.00;45.50
1936;DHT22;969;49.892;10.896;2023-02-22T08:14:24;18.00;45.50
1936;DHT22;969;49.892;10.896;2023-02-22T08:16:50;18.00;45.50
1936;DHT22;969;49.892;10.896;2023-02-22T08:19:15;18.00;45.60
1936;DHT22;969;49.892;10.896;2023-02-22T08:21:41;18.00;45.70
1936;DHT22;969;49.892;10.896;2023-02-22T08:24:06;18.00;45.80
1936;DHT22;969;49.892;10.896;2023-02-22T08:26:32;18.00;46.00
1936;DHT22;969;49.892;10.896;2023-02-22T08:28:58;18.00;46.30
1936;DHT22;969;49.892;10.896;2023-02-22T08:31:23;18.10;46.50
1936;DHT22;969;49.892;10.896;2023-02-22T08:33:49;18.10;46.80
1936;DHT22;969;49.892;10.896;2023-02-22T08:36:14;18.10;46.90
1936;DHT22;969;49.892;10.896;2023-02-22T08:38:40;18.20;47.00
1936;DHT22;969;49.892;10.896;2023-02-22T08:41:06;18.30;46.80
1936;DHT22;969;49.892;10.896;2023-02-22T08:43:31;18.30;46.80
1936;DHT22;969;49.892;10.896;2023-02-22T08:45:57;18.30;46.80
1936;DHT22;969;49.892;10.896;2023-02-22T08:48:23;18.40;47.00
1936;DHT22;969;49.892;10.896;2023-02-22T08:50:48;18.50;47.00
1936;DHT22;969;49.892;10.896;2023-02-22T08:53:15;18.50;47.10
1936;DHT22;969;49.892;10.896;2023-02-22T08:55:41;18.50;47.70
1936;DHT22;969;49.892;10.896;2023-02-22T08:58:07;18.60;47.70
1936;DHT22;969;49.892;10.896;2023-02-22T09:00:34;18.60;47.90
1936;DHT22;969;49.892;10.896;2023-02-22T09:03:03;18.60;48.00
1936;DHT22;969;49.892;10.896;2023-02-22T09:05:29;18.60;47.70
1936;DHT22;969;49.892;10.896;2023-02-22T09:07:55;18.70;48.10
1936;DHT22;969;49.892;10.896;2023-02-22T09:10:25;18.70;48.20
1936;DHT22;969;49.892;10.896;2023-02-22T09:12:52;18.80;47.90
1936;DHT22;969;49.892;10.896;2023-02-22T09:15:20;18.80;47.90
1936;DHT22;969;49.892;10.896;2023-02-22T09:17:47;18.80;47.80
1936;DHT22;969;49.892;10.896;2023-02-22T09:20:13;18.90;47.70
1936;DHT22;969;49.892;10.896;2023-02-22T09:22:39;18.90;47.50
1936;DHT22;969;49.892;10.896;2023-02-22T09:25:06;18.90;47.40
1936;DHT22;969;49.892;10.896;2023-02-22T09:27:31;18.90;47.60
1936;DHT22;969;49.892;10.896;2023-02-22T09:29:57;18.90;47.60
1936;DHT22;969;49.892;10.896;2023-02-22T09:32:23;19.00;47.50
1936;DHT22;969;49.892;10.896;2023-02-22T09:34:52;19.00;47.50
1936;DHT22;969;49.892;10.896;2023-02-22T09:37:17;18.90;47.50
1936;DHT22;969;49.892;10.896;2023-02-22T09:39:44;19.00;47.50
1936;DHT22;969;49.892;10.896;2023-02-22T09:42:35;19.00;47.50
1936;DHT22;969;49.892;10.896;2023-02-22T09:45:13;19.00;47.40
1936;DHT22;969;49.892;10.896;2023-02-22T09:47:58;18.90;47.30
1936;DHT22;969;49.892;10.896;2023-02-22T09:50:35;19.00;47.30
1936;DHT22;969;49.892;10.896;2023-02-22T09:53:26;18.90;47.20
1936;DHT22;969;49.892;10.896;2023-02-22T09:56:10;19.00;47.40
1936;DHT22;969;49.892;10.896;2023-02-22T09:58:45;19.00;47.30
1936;DHT22;969;49.892;10.896;2023-02-22T10:01:33;18.90;47.20
1936;DHT22;969;49.892;10.896;2023-02-22T10:09:36;18.90;47.40
1936;DHT22;969;49.892;10.896;2023-02-22T10:12:17;18.80;47.50
1936;DHT22;969;49.892;10.896;2023-02-22T10:23:19;18.90;47.30
1936;DHT22;969;49.892;10.896;2023-02-22T10:25:43;18.90;47.50
1936;DHT22;969;49.892;10.896;2023-02-22T10:28:49;18.90;47.50
1936;DHT22;969;49.892;10.896;2023-02-22T10:31:24;19.00;47.70
1936;DHT22;969;49.892;10.896;2023-02-22T10:33:59;19.00;47.60
1936;DHT22;969;49.892;10.896;2023-02-22T10:36:26;19.00;47.40
1936;DHT22;969;49.892;10.896;2023-02-22T10:41:56;19.10;47.30
1936;DHT22;969;49.892;10.896;2023-02-22T10:44:22;19.10;47.90
1936;DHT22;969;49.892;10.896;2023-02-22T10:46:48;19.20;47.30
1936;DHT22;969;49.892;10.896;2023-02-22T10:49:20;19.20;47.30
1936;DHT22;969;49.892;10.896;2023-02-22T10:51:52;19.20;47.30
1936;DHT22;969;49.892;10.896;2023-02-22T10:54:25;19.20;47.20
1936;DHT22;969;49.892;10.896;2023-02-22T10:56:54;19.20;47.20
1936;DHT22;969;49.892;10.896;2023-02-22T10:59:38;19.20;47.40
1936;DHT22;969;49.892;10.896;2023-02-22T11:02:31;19.20;47.40
1936;DHT22;969;49.892;10.896;2023-02-22T11:04:59;19.20;47.50
1936;DHT22;969;49.892;10.896;2023-02-22T11:07:31;19.20;47.40
1936;DHT22;969;49.892;10.896;2023-02-22T11:10:03;19.30;47.50
1936;DHT22;969;49.892;10.896;2023-02-22T11:12:34;19.30;47.40
1936;DHT22;969;49.892;10.896;2023-02-22T11:17:49;19.40;47.30
1936;DHT22;969;49.892;10.896;2023-02-22T11:22:51;19.40;47.30
1936;DHT22;969;49.892;10.896;2023-02-22T11:25:22;19.40;47.40
1936;DHT22;969;49.892;10.896;2023-02-22T11:27:49;19.40;47.40
1936;DHT22;969;49.892;10.896;2023-02-22T11:30:29;19.50;48.10
1936;DHT22;969;49.892;10.896;2023-02-22T11:33:17;19.50;47.40
1936;DHT22;969;49.892;10.896;2023-02-22T11:35:55;19.50;47.40
1936;DHT22;969;49.892;10.896;2023-02-22T11:38:27;19.50;47.30
1936;DHT22;969;49.892;10.896;2023-02-22T11:41:19;19.50;47.40
1936;DHT22;969;49.892;10.896;2023-02-22T11:43:50;19.50;47.40
1936;DHT22;969;49.892;10.896;2023-02-22T11:48:58;19.60;47.40
1936;DHT22;969;49.892;10.896;2023-02-22T12:02:42;19.70;47.20
1936;DHT22;969;49.892;10.896;2023-02-22T12:21:42;19.80;49.40
1936;DHT22;969;49.892;10.896;2023-02-22T12:24:41;19.80;49.70
1936;DHT22;969;49.892;10.896;2023-02-22T12:27:17;19.80;49.60
1936;DHT22;969;49.892;10.896;2023-02-22T12:29:45;19.90;49.60
1936;DHT22;969;49.892;10.896;2023-02-22T12:35:00;19.90;50.50
1936;DHT22;969;49.892;10.896;2023-02-22T12:37:51;19.90;51.00
1936;DHT22;969;49.892;10.896;2023-02-22T12:43:14;19.90;49.50
1936;DHT22;969;49.892;10.896;2023-02-22T12:45:45;19.90;49.30
1936;DHT22;969;49.892;10.896;2023-02-22T12:57:14;19.90;48.80
1936;DHT22;969;49.892;10.896;2023-02-22T12:59:49;19.80;48.90
1936;DHT22;969;49.892;10.896;2023-02-22T13:02:39;19.80;48.70
1936;DHT22;969;49.892;10.896;2023-02-22T13:05:14;19.80;48.60
1936;DHT22;969;49.892;10.896;2023-02-22T13:13:10;19.90;49.30
1936;DHT22;969;49.892;10.896;2023-02-22T13:16:00;19.90;49.40
1936;DHT22;969;49.892;10.896;2023-02-22T13:24:18;20.00;49.10
1936;DHT22;969;49.892;10.896;2023-02-22T13:26:56;20.00;49.70
1936;DHT22;969;49.892;10.896;2023-02-22T13:29:28;20.00;50.00
1936;DHT22;969;49.892;10.896;2023-02-22T13:34:57;20.10;49.60
1936;DHT22;969;49.892;10.896;2023-02-22T13:43:00;20.10;49.50
1936;DHT22;969;49.892;10.896;2023-02-22T13:54:07;20.10;49.80
1936;DHT22;969;49.892;10.896;2023-02-22T13:56:34;20.20;49.90
1936;DHT22;969;49.892;10.896;2023-02-22T13:59:02;20.20;49.90
1936;DHT22;969;49.892;10.896;2023-02-22T14:01:44;20.20;49.80
1936;DHT22;969;49.892;10.896;2023-02-22T14:04:34;20.20;49.80
1936;DHT22;969;49.892;10.896;2023-02-22T14:09:48;20.20;50.00
1936;DHT22;969;49.892;10.896;2023-02-22T14:17:42;20.20;50.00
1936;DHT22;969;49.892;10.896;2023-02-22T14:22:42;20.20;49.80
1936;DHT22;969;49.892;10.896;2023-02-22T14:28:03;20.20;49.90
1936;DHT22;969;49.892;10.896;2023-02-22T14:30:32;20.20;50.00
1936;DHT22;969;49.892;10.896;2023-02-22T14:32:58;20.10;50.00
1936;DHT22;969;49.892;10.896;2023-02-22T14:35:28;20.20;50.00
1936;DHT22;969;49.892;10.896;2023-02-22T14:37:57;20.10;49.70
1936;DHT22;969;49.892;10.896;2023-02-22T14:43:02;20.10;50.10
1936;DHT22;969;49.892;10.896;2023-02-22T14:45:31;20.20;50.10
1936;DHT22;969;49.892;10.896;2023-02-22T14:48:32;20.20;50.00
1936;DHT22;969;49.892;10.896;2023-02-22T14:54:11;20.40;49.50
1936;DHT22;969;49.892;10.896;2023-02-22T14:56:54;20.50;49.50
1936;DHT22;969;49.892;10.896;2023-02-22T14:59:25;20.50;49.60
1936;DHT22;969;49.892;10.896;2023-02-22T15:02:10;20.50;50.00
1936;DHT22;969;49.892;10.896;2023-02-22T15:04:37;20.50;50.00
1936;DHT22;969;49.892;10.896;2023-02-22T15:07:25;20.50;50.00
1936;DHT22;969;49.892;10.896;2023-02-22T15:10:03;20.40;50.10
1936;DHT22;969;49.892;10.896;2023-02-22T15:12:29;20.30;50.30
1936;DHT22;969;49.892;10.896;2023-02-22T15:15:17;20.30;50.40
1936;DHT22;969;49.892;10.896;2023-02-22T15:17:47;20.30;50.60
1936;DHT22;969;49.892;10.896;2023-02-22T15:20:15;20.30;50.50
1936;DHT22;969;49.892;10.896;2023-02-22T15:22:41;20.30;50.50
1936;DHT22;969;49.892;10.896;2023-02-22T15:25:08;20.20;50.30
1936;DHT22;969;49.892;10.896;2023-02-22T15:27:36;20.20;50.40
1936;DHT22;969;49.892;10.896;2023-02-22T15:30:24;20.20;50.50
1936;DHT22;969;49.892;10.896;2023-02-22T15:32:51;20.20;50.60
1936;DHT22;969;49.892;10.896;2023-02-22T15:35:31;20.10;50.60
1936;DHT22;969;49.892;10.896;2023-02-22T15:38:19;20.10;50.70
1936;DHT22;969;49.892;10.896;2023-02-22T15:40:54;20.00;51.20
1936;DHT22;969;49.892;10.896;2023-02-22T15:43:23;19.90;50.50
1936;DHT22;969;49.892;10.896;2023-02-22T15:45:53;19.80;50.90
1936;DHT22;969;49.892;10.896;2023-02-22T15:48:19;19.80;51.40
1936;DHT22;969;49.892;10.896;2023-02-22T15:51:08;19.80;51.00
1936;DHT22;969;49.892;10.896;2023-02-22T15:53:53;19.80;51.10
1936;DHT22;969;49.892;10.896;2023-02-22T15:56:30;19.70;51.20
1936;DHT22;969;49.892;10.896;2023-02-22T15:59:11;19.70;51.40
1936;DHT22;969;49.892;10.896;2023-02-22T16:01:40;19.60;51.30
1936;DHT22;969;49.892;10.896;2023-02-22T16:04:06;19.60;51.50
1936;DHT22;969;49.892;10.896;2023-02-22T16:06:40;19.60;52.20
1936;DHT22;969;49.892;10.896;2023-02-22T16:09:09;19.50;51.00
1936;DHT22;969;49.892;10.896;2023-02-22T16:11:38;19.50;50.50
1936;DHT22;969;49.892;10.896;2023-02-22T16:14:27;19.40;50.70
1936;DHT22;969;49.892;10.896;2023-02-22T16:22:37;19.30;51.80
1936;DHT22;969;49.892;10.896;2023-02-22T16:30:36;19.30;51.20
1936;DHT22;969;49.892;10.896;2023-02-22T16:33:07;19.30;51.20
1936;DHT22;969;49.892;10.896;2023-02-22T16:35:38;19.30;51.50
1936;DHT22;969;49.892;10.896;2023-02-22T16:38:05;19.30;51.50
1936;DHT22;969;49.892;10.896;2023-02-22T16:40:40;19.40;51.40
1936;DHT22;969;49.892;10.896;2023-02-22T16:43:14;19.30;51.40
1936;DHT22;969;49.892;10.896;2023-02-22T16:45:41;19.30;51.90
1936;DHT22;969;49.892;10.896;2023-02-22T16:48:23;19.30;51.90
1936;DHT22;969;49.892;10.896;2023-02-22T16:50:50;19.30;51.80
1936;DHT22;969;49.892;10.896;2023-02-22T16:53:18;19.30;52.00
1936;DHT22;969;49.892;10.896;2023-02-22T16:55:46;19.30;51.80
1936;DHT22;969;49.892;10.896;2023-02-22T16:58:13;19.30;52.40
1936;DHT22;969;49.892;10.896;2023-02-22T17:00:40;19.30;52.00
1936;DHT22;969;49.892;10.896;2023-02-22T17:03:13;19.30;52.10
1936;DHT22;969;49.892;10.896;2023-02-22T17:05:38;19.30;51.90
1936;DHT22;969;49.892;10.896;2023-02-22T17:08:04;19.30;52.20
1936;DHT22;969;49.892;10.896;2023-02-22T17:10:30;19.30;51.90
1936;DHT22;969;49.892;10.896;2023-02-22T17:12:57;19.20;51.90
1936;DHT22;969;49.892;10.896;2023-02-22T17:15:32;19.30;52.10
1936;DHT22;969;49.892;10.896;2023-02-22T17:17:59;19.30;52.20
1936;DHT22;969;49.892;10.896;2023-02-22T17:20:25;19.20;52.10
1936;DHT22;969;49.892;10.896;2023-02-22T17:23:05;19.20;52.00
1936;DHT22;969;49.892;10.896;2023-02-22T17:25:42;19.20;52.10
1936;DHT22;969;49.892;10.896;2023-02-22T17:28:09;19.20;52.10
1936;DHT22;969;49.892;10.896;2023-02-22T17:30:37;19.20;52.00
1936;DHT22;969;49.892;10.896;2023-02-22T17:33:06;19.20;52.20
1936;DHT22;969;49.892;10.896;2023-02-22T17:35:34;19.20;52.40
1936;DHT22;969;49.892;10.896;2023-02-22T17:38:00;19.20;52.40
1936;DHT22;969;49.892;10.896;2023-02-22T17:40:29;19.20;52.30
1936;DHT22;969;49.892;10.896;2023-02-22T17:42:54;19.10;52.10
1936;DHT22;969;49.892;10.896;2023-02-22T17:45:22;19.10;52.20
1936;DHT22;969;49.892;10.896;2023-02-22T17:47:49;19.10;52.30
1936;DHT22;969;49.892;10.896;2023-02-22T17:50:16;19.10;52.30
1936;DHT22;969;49.892;10.896;2023-02-22T17:52:42;19.10;52.40
1936;DHT22;969;49.892;10.896;2023-02-22T17:55:08;19.10;52.40
1936;DHT22;969;49.892;10.896;2023-02-22T17:57:34;19.10;52.60
1936;DHT22;969;49.892;10.896;2023-02-22T18:00:02;19.00;52.50
1936;DHT22;969;49.892;10.896;2023-02-22T18:02:39;19.10;52.50
1936;DHT22;969;49.892;10.896;2023-02-22T18:05:07;19.00;52.40
1936;DHT22;969;49.892;10.896;2023-02-22T18:07:33;19.00;52.30
1936;DHT22;969;49.892;10.896;2023-02-22T18:09:58;19.10;52.30
1936;DHT22;969;49.892;10.896;2023-02-22T18:12:24;19.00;52.20
1936;DHT22;969;49.892;10.896;2023-02-22T18:14:50;19.00;52.30
1936;DHT22;969;49.892;10.896;2023-02-22T18:17:17;19.00;52.20
1936;DHT22;969;49.892;10.896;2023-02-22T18:19:42;19.00;52.20
1936;DHT22;969;49.892;10.896;2023-02-22T18:22:08;19.00;52.20
1936;DHT22;969;49.892;10.896;2023-02-22T18:24:34;19.00;52.20
1936;DHT22;969;49.892;10.896;2023-02-22T18:27:00;19.00;52.20
1936;DHT22;969;49.892;10.896;2023-02-22T18:29:30;19.00;52.20
1936;DHT22;969;49.892;10.896;2023-02-22T18:31:56;19.00;52.20
1936;DHT22;969;49.892;10.896;2023-02-22T18:34:22;19.00;52.30
1936;DHT22;969;49.892;10.896;2023-02-22T18:36:54;19.00;52.10
1936;DHT22;969;49.892;10.896;2023-02-22T18:39:20;19.00;52.20
1936;DHT22;969;49.892;10.896;2023-02-22T18:41:45;19.00;52.20
1936;DHT22;969;49.892;10.896;2023-02-22T18:44:14;19.00;52.20
1936;DHT22;969;49.892;10.896;2023-02-22T18:46:40;19.00;52.20
1936;DHT22;969;49.892;10.896;2023-02-22T18:49:05;18.90;52.40
1936;DHT22;969;49.892;10.896;2023-02-22T18:51:31;18.90;52.40
1936;DHT22;969;49.892;10.896;2023-02-22T18:53:57;18.90;52.10
1936;DHT22;969;49.892;10.896;2023-02-22T18:56:27;18.90;51.30
1936;DHT22;969;49.892;10.896;2023-02-22T18:59:01;19.00;51.20